createdAt,value
2022-07-30T00:02:06.169Z,13.45
2022-07-30T00:04:38.804Z,13.30
2022-07-30T00:07:08.740Z,13.51
2022-07-30T00:09:37.013Z,13.47
2022-07-30T00:12:05.378Z,13.22
2022-07-30T00:14:35.304Z,13.30
2022-07-30T00:17:04.075Z,13.92
2022-07-30T00:19:33.006Z,14.39
2022-07-30T00:22:02.414Z,14.63
2022-07-30T00:24:30.556Z,14.76
2022-07-30T00:26:58.956Z,14.30
2022-07-30T00:29:27.987Z,13.83
2022-07-30T00:31:56.370Z,13.74
2022-07-30T00:34:24.767Z,13.63
2022-07-30T00:36:52.775Z,13.74
2022-07-30T00:39:24.587Z,13.52
2022-07-30T00:41:59.005Z,13.34
2022-07-30T00:44:27.343Z,13.08
2022-07-30T00:46:56.107Z,13.12
2022-07-30T00:49:26.760Z,13.20
2022-07-30T00:51:55.017Z,13.11
2022-07-30T00:54:24.671Z,12.98
2022-07-30T00:56:53.548Z,13.09
2022-07-30T00:59:22.923Z,12.83
2022-07-30T01:01:51.423Z,12.98
2022-07-30T01:04:19.388Z,12.77
2022-07-30T01:06:47.760Z,12.61
2022-07-30T01:10:20.049Z,12.50
2022-07-30T01:12:49.141Z,12.49
2022-07-30T01:15:17.849Z,12.55
2022-07-30T01:17:46.127Z,12.70
2022-07-30T01:20:26.028Z,12.49
2022-07-30T01:23:00.398Z,12.58
2022-07-30T01:26:01.698Z,12.89
2022-07-30T01:28:33.400Z,12.86
2022-07-30T01:31:02.796Z,12.88
2022-07-30T01:33:31.374Z,13.35
2022-07-30T01:36:05.489Z,13.37
2022-07-30T01:38:34.757Z,13.69
2022-07-30T01:41:07.873Z,13.75
2022-07-30T01:43:36.498Z,14.04
2022-07-30T01:46:04.748Z,14.10
2022-07-30T01:48:33.384Z,14.14
2022-07-30T01:51:05.133Z,14.10
2022-07-30T01:53:34.269Z,14.05
2022-07-30T01:56:03.773Z,13.99
2022-07-30T01:58:39.559Z,13.30
2022-07-30T02:01:08.690Z,13.22
2022-07-30T02:03:37.390Z,12.87
2022-07-30T02:06:11.083Z,13.64
2022-07-30T02:08:41.949Z,13.80
2022-07-30T02:11:12.453Z,13.80
2022-07-30T02:13:47.416Z,14.02
2022-07-30T02:16:18.306Z,13.95
2022-07-30T02:18:52.379Z,14.23
2022-07-30T02:21:22.025Z,14.16
2022-07-30T02:23:50.670Z,14.16
2022-07-30T02:26:20.333Z,14.14
2022-07-30T02:28:55.621Z,14.05
2022-07-30T02:31:26.400Z,14.11
2022-07-30T02:33:58.712Z,14.17
2022-07-30T02:36:27.392Z,14.27
2022-07-30T02:38:56.318Z,14.38
2022-07-30T02:41:26.190Z,14.27
2022-07-30T02:43:56.580Z,14.24
2022-07-30T02:46:25.840Z,14.22
2022-07-30T02:48:55.711Z,14.15
2022-07-30T02:51:24.329Z,13.72
2022-07-30T02:53:53.169Z,13.21
2022-07-30T02:56:23.005Z,13.13
2022-07-30T02:58:51.683Z,12.92
2022-07-30T03:01:23.353Z,12.78
2022-07-30T03:03:53.145Z,12.86
2022-07-30T03:06:22.308Z,12.76
2022-07-30T03:08:50.870Z,13.32
2022-07-30T03:12:20.028Z,13.56
2022-07-30T03:14:47.628Z,13.62
2022-07-30T03:17:18.119Z,13.62
2022-07-30T03:19:46.769Z,13.32
2022-07-30T03:23:15.929Z,13.48
2022-07-30T03:25:47.401Z,13.33
2022-07-30T03:28:17.281Z,12.95
2022-07-30T03:30:45.217Z,12.69
2022-07-30T03:33:15.934Z,13.22
2022-07-30T03:35:44.296Z,13.27
2022-07-30T03:38:13.655Z,13.52
2022-07-30T03:40:42.750Z,13.31
2022-07-30T03:43:32.551Z,13.08
2022-07-30T03:46:04.264Z,12.73
2022-07-30T03:48:35.367Z,12.69
2022-07-30T03:51:04.863Z,12.67
2022-07-30T03:53:34.435Z,12.68
2022-07-30T03:56:02.430Z,12.71
2022-07-30T03:58:32.317Z,12.79
2022-07-30T04:01:04.212Z,13.12
2022-07-30T04:03:34.907Z,13.34
2022-07-30T04:06:02.863Z,13.65
2022-07-30T04:08:30.793Z,13.71
2022-07-30T04:10:58.817Z,13.63
2022-07-30T04:13:26.688Z,13.45
2022-07-30T04:16:38.793Z,13.60
2022-07-30T04:18:52.881Z,13.62
2022-07-30T04:21:22.145Z,13.64
2022-07-30T04:24:04.793Z,13.71
2022-07-30T04:26:35.949Z,13.92
2022-07-30T04:29:06.425Z,13.92
2022-07-30T04:31:40.450Z,13.91
2022-07-30T04:34:09.971Z,13.72
2022-07-30T04:36:38.573Z,13.38
2022-07-30T04:42:47.052Z,13.24
2022-07-30T04:45:15.463Z,13.09
2022-07-30T04:47:43.211Z,13.09
2022-07-30T04:50:14.132Z,13.39
2022-07-30T04:52:43.102Z,13.38
2022-07-30T04:55:12.521Z,13.12
2022-07-30T04:57:43.743Z,13.58
2022-07-30T05:00:12.822Z,13.75
2022-07-30T05:02:41.951Z,13.92
2022-07-30T05:05:13.665Z,13.99
2022-07-30T05:07:43.614Z,14.10
2022-07-30T05:10:12.498Z,14.32
2022-07-30T05:12:40.457Z,14.47
2022-07-30T05:15:10.745Z,14.56
2022-07-30T05:17:39.205Z,14.56
2022-07-30T05:20:09.834Z,14.70
2022-07-30T05:22:39.998Z,14.72
2022-07-30T05:25:19.813Z,14.78
2022-07-30T05:28:57.027Z,14.92
2022-07-30T05:31:25.207Z,15.04
2022-07-30T05:33:53.286Z,15.12
2022-07-30T05:36:21.453Z,15.17
2022-07-30T05:38:50.668Z,15.20
2022-07-30T05:41:30.757Z,15.24
2022-07-30T05:44:02.237Z,15.30
2022-07-30T05:46:31.492Z,15.34
2022-07-30T05:49:00.107Z,15.37
2022-07-30T05:51:29.379Z,15.50
2022-07-30T05:54:00.705Z,15.54
2022-07-30T05:56:29.756Z,15.66
2022-07-30T05:58:58.576Z,15.83
2022-07-30T06:01:27.867Z,15.94
2022-07-30T06:03:55.894Z,16.12
2022-07-30T06:06:23.609Z,16.12
2022-07-30T06:08:52.286Z,16.22
2022-07-30T06:11:25.025Z,16.29
2022-07-30T06:13:53.777Z,16.44
2022-07-30T06:16:21.729Z,16.55
2022-07-30T06:18:50.384Z,16.72
2022-07-30T06:21:18.445Z,16.88
2022-07-30T06:23:46.218Z,16.96
2022-07-30T06:26:15.093Z,17.05
2022-07-30T06:28:44.584Z,17.04
2022-07-30T06:31:12.418Z,17.15
2022-07-30T06:33:40.476Z,17.18
2022-07-30T06:36:08.695Z,17.35
2022-07-30T06:38:42.982Z,17.35
2022-07-30T06:41:11.627Z,17.45
2022-07-30T06:43:40.027Z,17.63
2022-07-30T06:46:09.114Z,17.60
2022-07-30T06:48:37.742Z,17.68
2022-07-30T06:51:05.721Z,17.76
2022-07-30T06:53:33.577Z,17.95
2022-07-30T06:56:09.542Z,17.86
2022-07-30T06:58:37.296Z,17.81
2022-07-30T07:01:05.259Z,17.75
2022-07-30T07:03:40.973Z,17.79
2022-07-30T07:06:09.098Z,17.88
2022-07-30T07:08:38.443Z,17.92
2022-07-30T07:11:07.271Z,17.82
2022-07-30T07:13:36.140Z,18.04
2022-07-30T07:16:06.394Z,18.07
2022-07-30T07:18:35.067Z,18.09
2022-07-30T07:21:08.146Z,18.16
2022-07-30T07:23:41.384Z,18.26
2022-07-30T07:26:12.811Z,18.40
2022-07-30T07:28:41.730Z,18.60
2022-07-30T07:31:11.477Z,18.42
2022-07-30T07:33:59.276Z,18.52
2022-07-30T07:36:28.618Z,18.40
2022-07-30T07:38:56.261Z,18.45
2022-07-30T07:41:24.396Z,18.68
2022-07-30T07:44:57.126Z,18.76
2022-07-30T07:47:27.244Z,18.54
2022-07-30T07:49:56.397Z,18.71
2022-07-30T07:52:28.348Z,18.80
2022-07-30T07:54:56.014Z,18.62
2022-07-30T07:57:26.335Z,18.58
2022-07-30T07:59:55.459Z,18.65
2022-07-30T08:02:23.258Z,18.80
2022-07-30T08:04:51.943Z,18.77
2022-07-30T08:07:19.802Z,18.75
2022-07-30T08:09:49.125Z,18.87
2022-07-30T08:12:16.783Z,18.93
2022-07-30T08:14:44.666Z,18.87
2022-07-30T08:17:13.345Z,18.97
2022-07-30T08:19:42.331Z,18.77
2022-07-30T08:22:10.789Z,18.87
2022-07-30T08:24:38.543Z,19.26
2022-07-30T08:27:07.843Z,18.99
2022-07-30T08:29:35.779Z,19.27
2022-07-30T08:32:04.947Z,19.23
2022-07-30T08:34:33.847Z,19.52
2022-07-30T08:37:02.971Z,20.56
2022-07-30T08:39:31.462Z,19.78
2022-07-30T08:42:01.681Z,19.31
2022-07-30T08:44:33.150Z,19.43
2022-07-30T08:47:01.280Z,19.82
2022-07-30T08:49:29.408Z,19.87
2022-07-30T08:51:57.622Z,19.82
2022-07-30T08:54:26.510Z,19.73
2022-07-30T08:56:55.785Z,20.16
2022-07-30T08:59:25.690Z,19.84
2022-07-30T09:02:14.776Z,19.71
2022-07-30T09:04:42.738Z,20.08
2022-07-30T09:07:10.444Z,19.94
2022-07-30T09:09:40.856Z,20.06
2022-07-30T09:12:37.247Z,20.09
2022-07-30T09:15:08.738Z,20.07
2022-07-30T09:17:52.165Z,20.22
2022-07-30T09:20:21.212Z,20.47
2022-07-30T09:22:52.044Z,20.72
2022-07-30T09:25:35.747Z,21.01
2022-07-30T09:28:04.106Z,21.02
2022-07-30T09:30:46.167Z,21.15
2022-07-30T09:33:15.876Z,21.24
2022-07-30T09:35:45.782Z,21.00
2022-07-30T09:38:14.246Z,21.17
2022-07-30T09:40:57.212Z,21.15
2022-07-30T09:43:27.993Z,20.85
2022-07-30T09:46:00.473Z,20.92
2022-07-30T09:48:29.837Z,21.49
2022-07-30T09:50:58.205Z,21.39
2022-07-30T09:53:28.414Z,21.34
2022-07-30T09:55:58.546Z,21.55
2022-07-30T09:58:28.010Z,21.57
2022-07-30T10:00:58.375Z,21.78
2022-07-30T10:03:38.476Z,22.06
2022-07-30T10:06:11.209Z,22.31
2022-07-30T10:08:41.687Z,21.66
2022-07-30T10:11:12.217Z,21.97
2022-07-30T10:13:45.370Z,21.52
2022-07-30T10:16:14.367Z,22.13
2022-07-30T10:18:48.055Z,22.41
2022-07-30T10:21:16.986Z,22.94
2022-07-30T10:23:45.850Z,22.53
2022-07-30T10:26:20.085Z,22.56
2022-07-30T10:28:49.266Z,22.58
2022-07-30T10:31:47.352Z,22.60
2022-07-30T10:34:08.286Z,22.51
2022-07-30T10:36:42.151Z,22.26
2022-07-30T10:39:12.224Z,22.45
2022-07-30T10:41:54.232Z,23.11
2022-07-30T10:45:23.888Z,22.81
2022-07-30T10:47:53.060Z,23.73
2022-07-30T10:50:27.142Z,24.06
2022-07-30T10:52:57.065Z,23.36
2022-07-30T10:55:38.794Z,22.87
2022-07-30T10:58:09.956Z,23.37
2022-07-30T11:01:01.121Z,23.18
2022-07-30T11:03:40.037Z,23.41
2022-07-30T11:06:29.628Z,23.21
2022-07-30T11:08:58.502Z,24.37
2022-07-30T11:12:02.254Z,23.73
2022-07-30T11:15:06.856Z,24.83
2022-07-30T11:18:11.408Z,24.23
2022-07-30T11:20:40.661Z,24.25
2022-07-30T11:23:37.014Z,24.60
2022-07-30T11:26:07.264Z,24.24
2022-07-30T11:28:40.783Z,24.80
2022-07-30T11:32:07.463Z,24.94
2022-07-30T11:34:29.860Z,23.94
2022-07-30T11:37:18.703Z,24.21
2022-07-30T11:40:12.521Z,24.26
2022-07-30T11:42:42.139Z,24.94
2022-07-30T11:45:29.885Z,24.97
2022-07-30T11:48:01.477Z,25.74
2022-07-30T11:50:32.033Z,25.71
2022-07-30T11:53:01.353Z,26.61
2022-07-30T11:55:33.743Z,25.56
2022-07-30T11:58:04.194Z,25.32
2022-07-30T12:00:37.858Z,25.22
2022-07-30T12:03:11.703Z,24.44
2022-07-30T12:05:39.996Z,25.44
2022-07-30T12:08:08.160Z,24.45
2022-07-30T12:10:44.069Z,24.86
2022-07-30T12:13:14.215Z,24.82
2022-07-30T12:15:44.471Z,24.72
2022-07-30T12:18:26.390Z,24.68
2022-07-30T12:20:59.709Z,24.47
2022-07-30T12:24:28.729Z,24.77
2022-07-30T12:27:06.899Z,25.38
2022-07-30T12:29:36.192Z,26.51
2022-07-30T12:32:04.331Z,27.34
2022-07-30T12:34:33.692Z,25.69
2022-07-30T12:37:09.077Z,25.69
2022-07-30T12:39:37.651Z,26.13
2022-07-30T12:42:07.579Z,26.72
2022-07-30T12:44:39.120Z,27.92
2022-07-30T12:47:08.150Z,28.37
2022-07-30T12:49:37.569Z,26.49
2022-07-30T12:52:13.530Z,26.74
2022-07-30T12:55:03.388Z,28.21
2022-07-30T12:57:58.421Z,29.36
2022-07-30T13:00:28.569Z,28.49
2022-07-30T13:02:56.610Z,29.11
2022-07-30T13:05:48.598Z,29.05
2022-07-30T13:08:17.339Z,28.28
2022-07-30T13:10:59.887Z,28.13
2022-07-30T13:13:29.547Z,29.95
2022-07-30T13:16:01.835Z,30.62
2022-07-30T13:18:30.373Z,30.47
2022-07-30T13:20:58.309Z,31.01
2022-07-30T13:23:27.680Z,31.69
2022-07-30T13:25:55.641Z,29.33
2022-07-30T13:28:23.680Z,29.96
2022-07-30T13:30:53.089Z,29.67
2022-07-30T13:33:21.493Z,29.93
2022-07-30T13:35:50.153Z,29.24
2022-07-30T13:38:18.084Z,28.85
2022-07-30T13:40:46.015Z,30.04
2022-07-30T13:43:13.949Z,31.54
2022-07-30T13:45:42.373Z,31.28
2022-07-30T13:48:11.704Z,29.33
2022-07-30T13:50:41.597Z,28.71
2022-07-30T13:53:10.100Z,28.64
2022-07-30T13:55:38.738Z,28.27
2022-07-30T13:58:08.628Z,28.20
2022-07-30T14:00:37.378Z,29.30
2022-07-30T14:03:09.305Z,30.31
2022-07-30T14:05:42.111Z,31.12
2022-07-30T14:08:12.138Z,31.16
2022-07-30T14:10:41.205Z,30.78
2022-07-30T14:13:16.066Z,30.72
2022-07-30T14:15:49.919Z,29.43
2022-07-30T14:18:17.755Z,28.78
2022-07-30T14:20:49.334Z,28.59
2022-07-30T14:23:17.382Z,29.15
2022-07-30T14:25:47.258Z,29.06
2022-07-30T14:28:16.376Z,29.58
2022-07-30T14:30:45.067Z,29.63
2022-07-30T14:33:13.075Z,29.52
2022-07-30T14:47:14.899Z,29.69
2022-07-30T14:49:43.813Z,31.59
2022-07-30T14:52:13.660Z,29.89
2022-07-30T14:54:41.665Z,29.68
2022-07-30T14:57:10.651Z,30.20
2022-07-30T14:59:39.267Z,30.77
2022-07-30T15:02:10.666Z,29.70
2022-07-30T15:04:41.219Z,28.34
2022-07-30T15:10:50.149Z,29.29
2022-07-30T15:13:18.068Z,29.12
2022-07-30T15:15:47.334Z,30.46
2022-07-30T15:18:15.425Z,32.68
2022-07-30T15:20:44.940Z,32.10
2022-07-30T15:23:14.384Z,30.77
2022-07-30T15:25:43.676Z,31.72
2022-07-30T15:28:12.012Z,32.50
2022-07-30T15:30:39.980Z,32.64
2022-07-30T15:33:09.209Z,32.03
2022-07-30T15:35:38.258Z,29.55
2022-07-30T15:38:11.358Z,30.55
2022-07-30T15:40:40.206Z,32.32
2022-07-30T15:43:08.578Z,32.04
2022-07-30T15:45:55.772Z,33.08
2022-07-30T15:48:26.958Z,33.39
2022-07-30T15:51:01.727Z,32.54
2022-07-30T15:53:32.432Z,32.90
2022-07-30T15:56:00.698Z,30.87
2022-07-30T15:58:28.838Z,32.15
2022-07-30T16:00:56.776Z,32.35
2022-07-30T16:03:25.449Z,31.07
2022-07-30T16:05:54.965Z,31.65
2022-07-30T16:08:23.840Z,31.70
2022-07-30T16:10:53.165Z,31.79
2022-07-30T16:13:21.636Z,32.38
2022-07-30T16:15:49.985Z,32.20
2022-07-30T16:18:17.793Z,31.23
2022-07-30T16:21:47.091Z,31.91
2022-07-30T16:24:15.008Z,30.62
2022-07-30T16:26:47.654Z,30.45
2022-07-30T16:29:16.025Z,30.11
2022-07-30T16:31:44.880Z,28.89
2022-07-30T16:34:12.755Z,30.55
2022-07-30T16:36:40.600Z,29.16
2022-07-30T16:39:09.461Z,28.09
2022-07-30T16:41:48.333Z,28.48
2022-07-30T16:44:16.831Z,29.40
2022-07-30T16:46:46.426Z,28.95
2022-07-30T16:49:14.680Z,29.90
2022-07-30T16:51:42.957Z,28.48
2022-07-30T16:54:11.862Z,28.68
2022-07-30T16:56:40.116Z,29.30
2022-07-30T16:59:13.916Z,29.57
2022-07-30T17:01:42.323Z,28.64
2022-07-30T17:04:10.466Z,28.71
2022-07-30T17:06:39.941Z,29.42
2022-07-30T17:09:09.530Z,28.64
2022-07-30T17:11:46.721Z,27.57
2022-07-30T17:14:22.319Z,27.29
2022-07-30T17:16:50.734Z,27.10
2022-07-30T17:19:19.533Z,26.33
2022-07-30T17:21:47.504Z,26.38
2022-07-30T17:24:17.258Z,25.54
2022-07-30T17:26:46.869Z,26.36
2022-07-30T17:29:16.318Z,26.31
2022-07-30T17:31:48.635Z,26.25
2022-07-30T17:34:20.153Z,25.71
2022-07-30T17:36:52.277Z,25.58
2022-07-30T17:40:23.885Z,25.72
2022-07-30T17:42:12.360Z,25.84
2022-07-30T17:44:41.088Z,25.16
2022-07-30T17:47:15.154Z,25.11
2022-07-30T17:49:44.826Z,24.82
2022-07-30T17:52:12.893Z,24.72
2022-07-30T17:54:40.920Z,24.82
2022-07-30T17:57:09.207Z,24.55
2022-07-30T17:59:37.265Z,24.37
2022-07-30T18:02:06.475Z,24.16
2022-07-30T18:04:35.961Z,24.14
2022-07-30T18:07:04.116Z,23.92
2022-07-30T18:09:38.881Z,24.03
2022-07-30T18:12:09.902Z,23.80
2022-07-30T18:14:37.872Z,23.74
2022-07-30T18:17:09.081Z,23.80
2022-07-30T18:19:42.128Z,23.72
2022-07-30T18:22:14.759Z,23.61
2022-07-30T18:24:44.893Z,23.55
2022-07-30T18:27:13.489Z,23.52
2022-07-30T18:29:41.690Z,23.45
2022-07-30T18:32:11.347Z,23.36
2022-07-30T18:34:39.049Z,23.15
2022-07-30T18:37:08.810Z,23.15
2022-07-30T18:39:36.879Z,23.00
2022-07-30T18:42:05.411Z,22.88
2022-07-30T18:44:33.350Z,22.76
2022-07-30T18:47:01.240Z,22.68
2022-07-30T18:49:38.065Z,22.63
2022-07-30T18:52:10.377Z,22.53
2022-07-30T18:54:39.126Z,22.49
2022-07-30T18:57:11.292Z,22.43
2022-07-30T18:59:43.059Z,22.30
2022-07-30T19:02:11.026Z,22.18
2022-07-30T19:04:39.869Z,22.13
2022-07-30T19:07:09.331Z,22.08
2022-07-30T19:09:37.663Z,22.03
2022-07-30T19:12:06.263Z,21.99
2022-07-30T19:14:35.595Z,21.87
2022-07-30T19:17:13.730Z,21.73
2022-07-30T19:19:43.893Z,21.57
2022-07-30T19:22:13.065Z,21.30
2022-07-30T19:24:41.887Z,21.31
2022-07-30T19:27:14.121Z,21.07
2022-07-30T19:29:43.578Z,20.91
2022-07-30T19:32:12.513Z,21.18
2022-07-30T19:34:43.338Z,21.35
2022-07-30T19:37:11.492Z,21.11
2022-07-30T19:42:31.409Z,21.08
2022-07-30T19:45:04.266Z,21.10
2022-07-30T19:47:39.213Z,20.86
2022-07-30T19:50:08.745Z,20.78
2022-07-30T19:52:38.962Z,20.84
2022-07-30T19:55:18.394Z,20.58
2022-07-30T19:57:58.783Z,20.45
2022-07-30T20:00:32.090Z,20.51
2022-07-30T20:03:03.855Z,20.52
2022-07-30T20:05:33.249Z,20.52
2022-07-30T20:08:24.794Z,20.39
2022-07-30T20:10:59.133Z,20.38
2022-07-30T20:13:45.386Z,20.25
2022-07-30T20:16:14.674Z,20.12
2022-07-30T20:18:45.856Z,20.14
2022-07-30T20:21:16.836Z,19.93
2022-07-30T20:23:45.536Z,19.74
2022-07-30T20:26:16.121Z,19.95
2022-07-30T20:28:52.365Z,19.88
2022-07-30T20:31:22.544Z,19.91
2022-07-30T20:33:50.927Z,19.84
2022-07-30T20:36:19.322Z,19.91
2022-07-30T20:38:48.157Z,19.84
2022-07-30T20:41:17.658Z,19.83
2022-07-30T20:43:52.243Z,19.74
2022-07-30T20:46:36.712Z,19.79
2022-07-30T20:50:09.902Z,19.75
2022-07-30T20:52:40.155Z,19.83
2022-07-30T20:55:09.661Z,19.78
2022-07-30T20:57:56.907Z,19.49
2022-07-30T21:00:29.224Z,19.77
2022-07-30T21:02:57.723Z,19.79
2022-07-30T21:05:31.284Z,19.74
2022-07-30T21:07:59.391Z,19.54
2022-07-30T21:10:28.958Z,19.70
2022-07-30T21:13:02.847Z,19.75
2022-07-30T21:15:33.039Z,19.81
2022-07-30T21:18:01.681Z,19.68
2022-07-30T21:20:30.011Z,19.76
2022-07-30T21:22:58.853Z,19.59
2022-07-30T21:25:33.178Z,19.23
2022-07-30T21:28:06.550Z,19.42
2022-07-30T21:30:35.863Z,19.48
2022-07-30T21:33:03.696Z,19.40
2022-07-30T21:35:32.654Z,19.13
2022-07-30T21:38:01.424Z,18.94
2022-07-30T21:40:30.120Z,18.86
2022-07-30T21:42:59.274Z,18.83
2022-07-30T21:45:37.969Z,18.76
2022-07-30T21:48:09.313Z,18.58
2022-07-30T21:50:41.953Z,18.58
2022-07-30T21:53:12.978Z,18.55
2022-07-30T21:59:22.053Z,18.59
2022-07-30T22:01:55.193Z,18.61
2022-07-30T22:04:23.143Z,18.85
2022-07-30T22:06:54.502Z,18.42
2022-07-30T22:09:33.460Z,18.39
2022-07-30T22:12:09.141Z,18.42
2022-07-30T22:14:39.769Z,18.17
2022-07-30T22:17:22.475Z,18.18
2022-07-30T22:19:54.658Z,18.19
2022-07-30T22:22:27.450Z,18.32
2022-07-30T22:24:58.217Z,18.16
2022-07-30T22:27:39.877Z,18.08
2022-07-30T22:30:10.136Z,18.04
2022-07-30T22:32:42.919Z,18.03
2022-07-30T22:35:11.374Z,17.81
2022-07-30T22:37:40.071Z,17.73
2022-07-30T22:41:09.340Z,17.72
2022-07-30T22:43:42.663Z,17.33
2022-07-30T22:46:30.628Z,17.40
2022-07-30T22:49:01.390Z,17.47
2022-07-30T22:52:16.919Z,17.06
2022-07-30T22:54:19.446Z,17.11
2022-07-30T22:56:51.394Z,17.20
2022-07-30T22:59:19.350Z,17.30
2022-07-30T23:02:07.227Z,17.29
2022-07-30T23:04:41.976Z,17.28
2022-07-30T23:08:14.761Z,17.17
2022-07-30T23:10:59.868Z,17.23
2022-07-30T23:12:14.799Z,21.19
2022-07-30T23:13:28.802Z,17.01
2022-07-30T23:16:01.722Z,17.20
2022-07-30T23:18:29.554Z,17.25
2022-07-30T23:21:01.500Z,16.97
2022-07-30T23:23:30.687Z,16.84
2022-07-30T23:26:01.957Z,16.99
2022-07-30T23:28:30.056Z,16.96
2022-07-30T23:30:58.219Z,17.08
2022-07-30T23:33:25.982Z,17.22
2022-07-30T23:35:54.478Z,17.17
2022-07-30T23:38:27.136Z,17.38
2022-07-30T23:41:59.081Z,17.21
2022-07-30T23:44:27.561Z,17.18
2022-07-30T23:46:56.173Z,17.03
2022-07-30T23:49:24.555Z,17.05
2022-07-30T23:51:52.738Z,17.05
2022-07-30T23:54:22.327Z,17.01
2022-07-30T23:56:55.411Z,16.88
2022-07-30T23:59:23.974Z,16.88
